sensor_id;sensor_type;location;lat;lon;timestamp;temperature;humidity
16958;DHT22;8595;52.542;11.974;2023-03-03T00:01:17;1.40;99.90
16958;DHT22;8595;52.542;11.974;2023-03-03T00:03:44;1.50;99.90
16958;DHT22;8595;52.542;11.974;2023-03-03T00:06:12;1.40;99.90
16958;DHT22;8595;52.542;11.974;2023-03-03T00:08:39;1.40;99.90
16958;DHT22;8595;52.542;11.974;2023-03-03T00:11:09;1.40;99.90
16958;DHT22;8595;52.542;11.974;2023-03-03T00:13:44;1.50;99.90
16958;DHT22;8595;52.542;11.974;2023-03-03T00:16:36;1.50;99.90
16958;DHT22;8595;52.542;11.974;2023-03-03T00:19:06;1.30;99.90
16958;DHT22;8595;52.542;11.974;2023-03-03T00:21:40;1.20;99.90
16958;DHT22;8595;52.542;11.974;2023-03-03T00:24:16;1.20;99.90
16958;DHT22;8595;52.542;11.974;2023-03-03T00:26:45;1.30;99.90
16958;DHT22;8595;52.542;11.974;2023-03-03T00:29:33;1.30;99.90
16958;DHT22;8595;52.542;11.974;2023-03-03T00:32:18;1.20;99.90
16958;DHT22;8595;52.542;11.974;2023-03-03T00:34:47;1.30;99.90
16958;DHT22;8595;52.542;11.974;2023-03-03T00:37:25;1.20;99.90
16958;DHT22;8595;52.542;11.974;2023-03-03T00:39:53;1.10;99.90
16958;DHT22;8595;52.542;11.974;2023-03-03T00:42:29;1.00;99.90
16958;DHT22;8595;52.542;11.974;2023-03-03T00:45:15;1.10;99.90
16958;DHT22;8595;52.542;11.974;2023-03-03T00:47:42;1.00;99.90
16958;DHT22;8595;52.542;11.974;2023-03-03T00:50:24;1.00;99.90
16958;DHT22;8595;52.542;11.974;2023-03-03T00:52:59;1.10;99.90
16958;DHT22;8595;52.542;11.974;2023-03-03T00:55:27;1.10;99.90
16958;DHT22;8595;52.542;11.974;2023-03-03T00:57:54;1.20;99.90
16958;DHT22;8595;52.542;11.974;2023-03-03T01:00:22;1.20;99.90
16958;DHT22;8595;52.542;11.974;2023-03-03T01:02:50;1.10;99.90
16958;DHT22;8595;52.542;11.974;2023-03-03T01:05:18;1.20;99.90
16958;DHT22;8595;52.542;11.974;2023-03-03T01:07:45;1.30;99.90
16958;DHT22;8595;52.542;11.974;2023-03-03T01:10:15;1.30;99.90
16958;DHT22;8595;52.542;11.974;2023-03-03T01:12:42;1.40;99.90
16958;DHT22;8595;52.542;11.974;2023-03-03T01:15:10;1.30;99.90
16958;DHT22;8595;52.542;11.974;2023-03-03T01:17:39;1.30;99.90
16958;DHT22;8595;52.542;11.974;2023-03-03T01:20:07;1.30;99.90
16958;DHT22;8595;52.542;11.974;2023-03-03T01:22:34;1.20;99.90
16958;DHT22;8595;52.542;11.974;2023-03-03T01:25:10;1.10;99.90
16958;DHT22;8595;52.542;11.974;2023-03-03T01:27:37;1.20;99.90
16958;DHT22;8595;52.542;11.974;2023-03-03T01:30:05;1.20;99.90
16958;DHT22;8595;52.542;11.974;2023-03-03T01:32:32;1.10;99.90
16958;DHT22;8595;52.542;11.974;2023-03-03T01:35:01;1.00;99.90
16958;DHT22;8595;52.542;11.974;2023-03-03T01:37:33;1.00;99.90
16958;DHT22;8595;52.542;11.974;2023-03-03T01:40:00;0.90;99.90
16958;DHT22;8595;52.542;11.974;2023-03-03T01:42:27;0.90;99.90
16958;DHT22;8595;52.542;11.974;2023-03-03T01:45:15;0.90;99.90
16958;DHT22;8595;52.542;11.974;2023-03-03T01:47:46;0.90;99.90
16958;DHT22;8595;52.542;11.974;2023-03-03T01:50:25;0.90;99.90
16958;DHT22;8595;52.542;11.974;2023-03-03T01:52:54;0.90;99.90
16958;DHT22;8595;52.542;11.974;2023-03-03T01:55:33;1.00;99.90
16958;DHT22;8595;52.542;11.974;2023-03-03T01:58:04;1.00;99.90
16958;DHT22;8595;52.542;11.974;2023-03-03T02:00:33;1.00;99.90
16958;DHT22;8595;52.542;11.974;2023-03-03T02:03:01;1.00;99.90
16958;DHT22;8595;52.542;11.974;2023-03-03T02:05:30;1.20;99.90
16958;DHT22;8595;52.542;11.974;2023-03-03T02:07:58;1.10;99.90
16958;DHT22;8595;52.542;11.974;2023-03-03T02:10:31;1.10;99.90
16958;DHT22;8595;52.542;11.974;2023-03-03T02:12:58;1.10;99.90
16958;DHT22;8595;52.542;11.974;2023-03-03T02:15:26;1.10;99.90
16958;DHT22;8595;52.542;11.974;2023-03-03T02:17:55;1.10;99.90
16958;DHT22;8595;52.542;11.974;2023-03-03T02:20:40;1.20;99.90
16958;DHT22;8595;52.542;11.974;2023-03-03T02:23:15;1.10;99.90
16958;DHT22;8595;52.542;11.974;2023-03-03T02:25:50;1.00;99.90
16958;DHT22;8595;52.542;11.974;2023-03-03T02:28:21;1.20;99.90
16958;DHT22;8595;52.542;11.974;2023-03-03T02:30:48;1.10;99.90
16958;DHT22;8595;52.542;11.974;2023-03-03T02:33:15;1.10;99.90
16958;DHT22;8595;52.542;11.974;2023-03-03T02:35:42;1.10;99.90
16958;DHT22;8595;52.542;11.974;2023-03-03T02:38:18;1.10;99.90
16958;DHT22;8595;52.542;11.974;2023-03-03T02:40:55;1.10;99.90
16958;DHT22;8595;52.542;11.974;2023-03-03T02:43:31;1.10;99.90
16958;DHT22;8595;52.542;11.974;2023-03-03T02:45:59;1.10;99.90
16958;DHT22;8595;52.542;11.974;2023-03-03T02:48:27;1.00;99.90
16958;DHT22;8595;52.542;11.974;2023-03-03T02:51:02;1.00;99.90
16958;DHT22;8595;52.542;11.974;2023-03-03T02:53:29;0.90;99.90
16958;DHT22;8595;52.542;11.974;2023-03-03T02:55:56;0.90;99.90
16958;DHT22;8595;52.542;11.974;2023-03-03T02:58:23;1.00;99.90
16958;DHT22;8595;52.542;11.974;2023-03-03T03:00:51;1.00;99.90
16958;DHT22;8595;52.542;11.974;2023-03-03T03:03:17;1.00;99.90
16958;DHT22;8595;52.542;11.974;2023-03-03T03:05:44;1.00;99.90
16958;DHT22;8595;52.542;11.974;2023-03-03T03:08:11;1.10;99.90
16958;DHT22;8595;52.542;11.974;2023-03-03T03:10:38;1.20;99.90
16958;DHT22;8595;52.542;11.974;2023-03-03T03:13:04;1.20;99.90
16958;DHT22;8595;52.542;11.974;2023-03-03T03:15:31;1.10;99.90
16958;DHT22;8595;52.542;11.974;2023-03-03T03:17:59;1.00;99.90
16958;DHT22;8595;52.542;11.974;2023-03-03T03:20:26;1.10;99.90
16958;DHT22;8595;52.542;11.974;2023-03-03T03:22:53;1.10;99.90
16958;DHT22;8595;52.542;11.974;2023-03-03T03:25:20;1.10;99.90
16958;DHT22;8595;52.542;11.974;2023-03-03T03:27:46;1.10;99.90
16958;DHT22;8595;52.542;11.974;2023-03-03T03:30:13;1.10;99.90
16958;DHT22;8595;52.542;11.974;2023-03-03T03:32:40;1.10;99.90
16958;DHT22;8595;52.542;11.974;2023-03-03T03:35:08;1.10;99.90
16958;DHT22;8595;52.542;11.974;2023-03-03T03:37:35;1.10;99.90
16958;DHT22;8595;52.542;11.974;2023-03-03T03:40:09;1.00;99.90
16958;DHT22;8595;52.542;11.974;2023-03-03T03:42:36;0.90;99.90
16958;DHT22;8595;52.542;11.974;2023-03-03T03:45:04;0.90;99.90
16958;DHT22;8595;52.542;11.974;2023-03-03T03:47:31;1.10;99.90
16958;DHT22;8595;52.542;11.974;2023-03-03T03:50:00;1.00;99.90
16958;DHT22;8595;52.542;11.974;2023-03-03T03:52:28;0.90;99.90
16958;DHT22;8595;52.542;11.974;2023-03-03T03:54:54;1.00;99.90
16958;DHT22;8595;52.542;11.974;2023-03-03T03:57:21;1.00;99.90
16958;DHT22;8595;52.542;11.974;2023-03-03T03:59:49;1.10;99.90
16958;DHT22;8595;52.542;11.974;2023-03-03T04:02:16;1.10;99.90
16958;DHT22;8595;52.542;11.974;2023-03-03T04:04:43;1.10;99.90
16958;DHT22;8595;52.542;11.974;2023-03-03T04:07:10;1.10;99.90
16958;DHT22;8595;52.542;11.974;2023-03-03T04:09:38;1.10;99.90
16958;DHT22;8595;52.542;11.974;2023-03-03T04:12:05;1.20;99.90
16958;DHT22;8595;52.542;11.974;2023-03-03T04:14:32;1.20;99.90
16958;DHT22;8595;52.542;11.974;2023-03-03T04:16:58;1.10;99.90
16958;DHT22;8595;52.542;11.974;2023-03-03T04:19:26;1.10;99.90
16958;DHT22;8595;52.542;11.974;2023-03-03T04:21:53;1.00;99.90
16958;DHT22;8595;52.542;11.974;2023-03-03T04:24:19;1.00;99.90
16958;DHT22;8595;52.542;11.974;2023-03-03T04:26:47;1.10;99.90
16958;DHT22;8595;52.542;11.974;2023-03-03T04:29:14;1.10;99.90
16958;DHT22;8595;52.542;11.974;2023-03-03T04:31:41;1.00;99.90
16958;DHT22;8595;52.542;11.974;2023-03-03T04:34:08;1.10;99.90
16958;DHT22;8595;52.542;11.974;2023-03-03T04:36:34;1.10;99.90
16958;DHT22;8595;52.542;11.974;2023-03-03T04:39:01;1.10;99.90
16958;DHT22;8595;52.542;11.974;2023-03-03T04:41:28;1.20;99.90
16958;DHT22;8595;52.542;11.974;2023-03-03T04:43:57;1.20;99.90
16958;DHT22;8595;52.542;11.974;2023-03-03T04:46:33;1.20;99.90
16958;DHT22;8595;52.542;11.974;2023-03-03T04:49:00;1.20;99.90
16958;DHT22;8595;52.542;11.974;2023-03-03T04:51:31;1.20;99.90
16958;DHT22;8595;52.542;11.974;2023-03-03T04:53:58;1.10;99.90
16958;DHT22;8595;52.542;11.974;2023-03-03T04:56:25;1.10;99.90
16958;DHT22;8595;52.542;11.974;2023-03-03T04:58:53;1.10;99.90
16958;DHT22;8595;52.542;11.974;2023-03-03T05:01:21;1.20;99.90
16958;DHT22;8595;52.542;11.974;2023-03-03T05:03:50;1.30;99.90
16958;DHT22;8595;52.542;11.974;2023-03-03T05:06:18;1.40;99.90
16958;DHT22;8595;52.542;11.974;2023-03-03T05:08:46;1.40;99.90
16958;DHT22;8595;52.542;11.974;2023-03-03T05:11:12;1.50;99.90
16958;DHT22;8595;52.542;11.974;2023-03-03T05:13:39;1.50;99.90
16958;DHT22;8595;52.542;11.974;2023-03-03T05:16:06;1.40;99.90
16958;DHT22;8595;52.542;11.974;2023-03-03T05:18:34;1.40;99.90
16958;DHT22;8595;52.542;11.974;2023-03-03T05:21:03;1.40;99.90
16958;DHT22;8595;52.542;11.974;2023-03-03T05:23:30;1.30;99.90
16958;DHT22;8595;52.542;11.974;2023-03-03T05:25:56;1.30;99.90
16958;DHT22;8595;52.542;11.974;2023-03-03T05:28:23;1.40;99.90
16958;DHT22;8595;52.542;11.974;2023-03-03T05:30:50;1.50;99.90
16958;DHT22;8595;52.542;11.974;2023-03-03T05:33:17;1.40;99.90
16958;DHT22;8595;52.542;11.974;2023-03-03T05:35:52;1.40;99.90
16958;DHT22;8595;52.542;11.974;2023-03-03T05:38:19;1.30;99.90
16958;DHT22;8595;52.542;11.974;2023-03-03T05:40:49;1.30;99.90
16958;DHT22;8595;52.542;11.974;2023-03-03T05:43:16;1.40;99.90
16958;DHT22;8595;52.542;11.974;2023-03-03T05:45:44;1.30;99.90
16958;DHT22;8595;52.542;11.974;2023-03-03T05:48:11;1.30;99.90
16958;DHT22;8595;52.542;11.974;2023-03-03T05:50:38;1.30;99.90
16958;DHT22;8595;52.542;11.974;2023-03-03T05:53:06;1.50;99.90
16958;DHT22;8595;52.542;11.974;2023-03-03T05:55:33;1.30;99.90
16958;DHT22;8595;52.542;11.974;2023-03-03T05:58:01;1.30;99.90
16958;DHT22;8595;52.542;11.974;2023-03-03T06:00:27;1.20;99.90
16958;DHT22;8595;52.542;11.974;2023-03-03T06:02:54;1.20;99.90
16958;DHT22;8595;52.542;11.974;2023-03-03T06:05:22;1.30;99.90
16958;DHT22;8595;52.542;11.974;2023-03-03T06:07:49;1.40;99.90
16958;DHT22;8595;52.542;11.974;2023-03-03T06:10:17;1.50;99.90
16958;DHT22;8595;52.542;11.974;2023-03-03T06:12:44;1.60;99.90
16958;DHT22;8595;52.542;11.974;2023-03-03T06:15:11;1.60;99.90
16958;DHT22;8595;52.542;11.974;2023-03-03T06:17:38;1.50;99.90
16958;DHT22;8595;52.542;11.974;2023-03-03T06:20:05;1.50;99.90
16958;DHT22;8595;52.542;11.974;2023-03-03T06:22:32;1.60;99.90
16958;DHT22;8595;52.542;11.974;2023-03-03T06:24:59;1.50;99.90
16958;DHT22;8595;52.542;11.974;2023-03-03T06:27:28;1.70;99.90
16958;DHT22;8595;52.542;11.974;2023-03-03T06:29:55;1.70;99.90
16958;DHT22;8595;52.542;11.974;2023-03-03T06:32:22;1.60;99.90
16958;DHT22;8595;52.542;11.974;2023-03-03T06:34:49;1.60;99.90
16958;DHT22;8595;52.542;11.974;2023-03-03T06:37:15;1.70;99.90
16958;DHT22;8595;52.542;11.974;2023-03-03T06:39:42;1.60;99.90
16958;DHT22;8595;52.542;11.974;2023-03-03T06:42:09;1.70;99.90
16958;DHT22;8595;52.542;11.974;2023-03-03T06:44:37;1.70;99.90
16958;DHT22;8595;52.542;11.974;2023-03-03T06:47:04;1.80;99.90
16958;DHT22;8595;52.542;11.974;2023-03-03T06:49:33;1.80;99.90
16958;DHT22;8595;52.542;11.974;2023-03-03T06:52:09;1.90;99.90
16958;DHT22;8595;52.542;11.974;2023-03-03T06:54:37;1.90;99.90
16958;DHT22;8595;52.542;11.974;2023-03-03T06:57:14;2.00;99.90
16958;DHT22;8595;52.542;11.974;2023-03-03T06:59:46;2.00;99.90
16958;DHT22;8595;52.542;11.974;2023-03-03T07:02:16;1.90;99.90
16958;DHT22;8595;52.542;11.974;2023-03-03T07:04:44;1.90;99.90
16958;DHT22;8595;52.542;11.974;2023-03-03T07:07:16;1.90;99.90
16958;DHT22;8595;52.542;11.974;2023-03-03T07:09:45;1.80;99.90
16958;DHT22;8595;52.542;11.974;2023-03-03T07:12:17;1.80;99.90
16958;DHT22;8595;52.542;11.974;2023-03-03T07:14:46;1.90;99.90
16958;DHT22;8595;52.542;11.974;2023-03-03T07:17:18;2.00;99.90
16958;DHT22;8595;52.542;11.974;2023-03-03T07:19:46;2.10;99.90
16958;DHT22;8595;52.542;11.974;2023-03-03T07:22:15;1.90;99.90
16958;DHT22;8595;52.542;11.974;2023-03-03T07:24:44;1.90;99.90
16958;DHT22;8595;52.542;11.974;2023-03-03T07:27:15;1.90;99.90
16958;DHT22;8595;52.542;11.974;2023-03-03T07:29:48;1.80;99.90
16958;DHT22;8595;52.542;11.974;2023-03-03T07:32:24;1.90;99.90
16958;DHT22;8595;52.542;11.974;2023-03-03T07:34:54;1.90;99.90
16958;DHT22;8595;52.542;11.974;2023-03-03T07:37:28;1.90;99.90
16958;DHT22;8595;52.542;11.974;2023-03-03T07:39:57;1.90;99.90
16958;DHT22;8595;52.542;11.974;2023-03-03T07:42:26;1.80;99.90
16958;DHT22;8595;52.542;11.974;2023-03-03T07:44:57;1.80;99.90
16958;DHT22;8595;52.542;11.974;2023-03-03T07:47:34;1.70;99.90
16958;DHT22;8595;52.542;11.974;2023-03-03T07:50:14;1.60;99.90
16958;DHT22;8595;52.542;11.974;2023-03-03T07:52:43;1.70;99.90
16958;DHT22;8595;52.542;11.974;2023-03-03T07:55:25;1.70;99.90
16958;DHT22;8595;52.542;11.974;2023-03-03T07:58:17;1.80;99.90
16958;DHT22;8595;52.542;11.974;2023-03-03T08:03:53;2.10;99.90
16958;DHT22;8595;52.542;11.974;2023-03-03T08:06:34;2.10;99.90
16958;DHT22;8595;52.542;11.974;2023-03-03T08:09:02;2.20;99.90
16958;DHT22;8595;52.542;11.974;2023-03-03T08:11:41;2.20;99.90
16958;DHT22;8595;52.542;11.974;2023-03-03T08:14:15;2.30;99.90
16958;DHT22;8595;52.542;11.974;2023-03-03T08:16:46;2.20;99.90
16958;DHT22;8595;52.542;11.974;2023-03-03T08:19:16;2.20;99.90
16958;DHT22;8595;52.542;11.974;2023-03-03T08:21:43;2.20;99.90
16958;DHT22;8595;52.542;11.974;2023-03-03T08:24:10;2.20;99.90
16958;DHT22;8595;52.542;11.974;2023-03-03T08:26:37;2.30;99.90
16958;DHT22;8595;52.542;11.974;2023-03-03T08:29:03;2.30;99.90
16958;DHT22;8595;52.542;11.974;2023-03-03T08:31:30;2.40;99.90
16958;DHT22;8595;52.542;11.974;2023-03-03T08:33:57;2.50;99.90
16958;DHT22;8595;52.542;11.974;2023-03-03T08:36:26;2.40;99.90
16958;DHT22;8595;52.542;11.974;2023-03-03T08:38:52;2.50;99.90
16958;DHT22;8595;52.542;11.974;2023-03-03T08:41:19;2.60;99.90
16958;DHT22;8595;52.542;11.974;2023-03-03T08:43:46;2.70;99.90
16958;DHT22;8595;52.542;11.974;2023-03-03T08:46:12;2.90;99.90
16958;DHT22;8595;52.542;11.974;2023-03-03T08:48:39;2.90;99.90
16958;DHT22;8595;52.542;11.974;2023-03-03T08:51:06;2.90;99.90
16958;DHT22;8595;52.542;11.974;2023-03-03T08:53:34;2.90;99.90
16958;DHT22;8595;52.542;11.974;2023-03-03T08:56:07;2.80;99.90
16958;DHT22;8595;52.542;11.974;2023-03-03T08:58:34;2.80;99.90
16958;DHT22;8595;52.542;11.974;2023-03-03T09:01:02;2.90;99.90
16958;DHT22;8595;52.542;11.974;2023-03-03T09:03:29;2.90;99.90
16958;DHT22;8595;52.542;11.974;2023-03-03T09:05:58;3.00;99.90
16958;DHT22;8595;52.542;11.974;2023-03-03T09:08:31;2.80;99.90
16958;DHT22;8595;52.542;11.974;2023-03-03T09:10:59;2.80;99.90
16958;DHT22;8595;52.542;11.974;2023-03-03T09:13:28;2.90;99.90
16958;DHT22;8595;52.542;11.974;2023-03-03T09:15:57;2.90;99.90
16958;DHT22;8595;52.542;11.974;2023-03-03T09:18:30;2.70;99.90
16958;DHT22;8595;52.542;11.974;2023-03-03T09:20:57;2.70;99.90
16958;DHT22;8595;52.542;11.974;2023-03-03T09:23:32;2.80;99.90
16958;DHT22;8595;52.542;11.974;2023-03-03T09:26:21;2.90;99.90
16958;DHT22;8595;52.542;11.974;2023-03-03T09:28:51;2.80;99.90
16958;DHT22;8595;52.542;11.974;2023-03-03T09:31:23;2.80;99.90
16958;DHT22;8595;52.542;11.974;2023-03-03T09:34:00;3.00;99.90
16958;DHT22;8595;52.542;11.974;2023-03-03T09:36:28;3.30;99.90
16958;DHT22;8595;52.542;11.974;2023-03-03T09:38:56;3.50;99.90
16958;DHT22;8595;52.542;11.974;2023-03-03T09:41:53;3.50;99.90
16958;DHT22;8595;52.542;11.974;2023-03-03T09:44:44;3.30;99.90
16958;DHT22;8595;52.542;11.974;2023-03-03T09:47:33;3.10;99.90
16958;DHT22;8595;52.542;11.974;2023-03-03T09:50:08;3.00;99.90
16958;DHT22;8595;52.542;11.974;2023-03-03T09:52:45;2.90;99.90
16958;DHT22;8595;52.542;11.974;2023-03-03T09:55:23;3.00;99.90
16958;DHT22;8595;52.542;11.974;2023-03-03T09:58:13;3.10;99.90
16958;DHT22;8595;52.542;11.974;2023-03-03T10:00:50;3.10;99.90
16958;DHT22;8595;52.542;11.974;2023-03-03T10:03:52;3.40;99.90
16958;DHT22;8595;52.542;11.974;2023-03-03T10:06:30;3.50;99.90
16958;DHT22;8595;52.542;11.974;2023-03-03T10:09:09;3.70;99.90
16958;DHT22;8595;52.542;11.974;2023-03-03T10:11:49;3.70;99.90
16958;DHT22;8595;52.542;11.974;2023-03-03T10:14:38;3.70;99.90
16958;DHT22;8595;52.542;11.974;2023-03-03T10:17:20;3.50;99.90
16958;DHT22;8595;52.542;11.974;2023-03-03T10:20:00;3.60;99.90
16958;DHT22;8595;52.542;11.974;2023-03-03T10:22:44;3.60;99.90
16958;DHT22;8595;52.542;11.974;2023-03-03T10:25:25;3.40;99.90
16958;DHT22;8595;52.542;11.974;2023-03-03T10:28:04;3.50;99.90
16958;DHT22;8595;52.542;11.974;2023-03-03T10:30:42;3.70;99.90
16958;DHT22;8595;52.542;11.974;2023-03-03T10:33:21;3.80;99.90
16958;DHT22;8595;52.542;11.974;2023-03-03T10:36:06;3.80;99.90
16958;DHT22;8595;52.542;11.974;2023-03-03T10:38:44;3.90;99.90
16958;DHT22;8595;52.542;11.974;2023-03-03T10:41:33;3.90;99.90
16958;DHT22;8595;52.542;11.974;2023-03-03T10:44:27;3.90;99.90
16958;DHT22;8595;52.542;11.974;2023-03-03T10:47:12;3.90;99.90
16958;DHT22;8595;52.542;11.974;2023-03-03T10:49:54;4.20;99.90
16958;DHT22;8595;52.542;11.974;2023-03-03T10:52:32;4.10;99.90
16958;DHT22;8595;52.542;11.974;2023-03-03T10:55:12;4.30;99.90
16958;DHT22;8595;52.542;11.974;2023-03-03T10:57:50;4.40;99.90
16958;DHT22;8595;52.542;11.974;2023-03-03T11:00:23;4.70;99.90
16958;DHT22;8595;52.542;11.974;2023-03-03T11:03:35;4.90;99.90
16958;DHT22;8595;52.542;11.974;2023-03-03T11:06:24;4.90;99.90
16958;DHT22;8595;52.542;11.974;2023-03-03T11:08:54;4.70;99.90
16958;DHT22;8595;52.542;11.974;2023-03-03T11:11:30;4.60;99.90
16958;DHT22;8595;52.542;11.974;2023-03-03T11:14:05;4.80;99.90
16958;DHT22;8595;52.542;11.974;2023-03-03T11:16:40;5.00;99.90
16958;DHT22;8595;52.542;11.974;2023-03-03T11:19:36;5.30;99.90
16958;DHT22;8595;52.542;11.974;2023-03-03T11:22:18;5.60;99.90
16958;DHT22;8595;52.542;11.974;2023-03-03T11:24:57;5.50;99.90
16958;DHT22;8595;52.542;11.974;2023-03-03T11:27:51;5.80;99.90
16958;DHT22;8595;52.542;11.974;2023-03-03T11:30:38;5.90;99.90
16958;DHT22;8595;52.542;11.974;2023-03-03T11:33:11;5.70;99.90
16958;DHT22;8595;52.542;11.974;2023-03-03T11:35:45;5.60;99.90
16958;DHT22;8595;52.542;11.974;2023-03-03T11:38:36;5.50;99.90
16958;DHT22;8595;52.542;11.974;2023-03-03T11:41:17;5.50;99.90
16958;DHT22;8595;52.542;11.974;2023-03-03T11:43:49;5.30;99.90
16958;DHT22;8595;52.542;11.974;2023-03-03T11:46:19;5.30;99.90
16958;DHT22;8595;52.542;11.974;2023-03-03T11:48:52;5.30;99.90
16958;DHT22;8595;52.542;11.974;2023-03-03T11:51:33;6.10;99.90
16958;DHT22;8595;52.542;11.974;2023-03-03T11:54:07;6.20;99.90
16958;DHT22;8595;52.542;11.974;2023-03-03T11:56:39;6.30;99.90
16958;DHT22;8595;52.542;11.974;2023-03-03T12:02:19;6.40;99.90
16958;DHT22;8595;52.542;11.974;2023-03-03T12:04:51;6.40;99.90
16958;DHT22;8595;52.542;11.974;2023-03-03T12:07:28;6.40;99.90
16958;DHT22;8595;52.542;11.974;2023-03-03T12:10:05;6.70;99.90
16958;DHT22;8595;52.542;11.974;2023-03-03T12:12:37;6.90;99.90
16958;DHT22;8595;52.542;11.974;2023-03-03T12:15:22;7.20;99.90
16958;DHT22;8595;52.542;11.974;2023-03-03T12:18:25;7.30;99.90
16958;DHT22;8595;52.542;11.974;2023-03-03T12:21:01;7.60;99.90
16958;DHT22;8595;52.542;11.974;2023-03-03T12:24:01;8.30;99.90
16958;DHT22;8595;52.542;11.974;2023-03-03T12:26:34;8.80;99.90
16958;DHT22;8595;52.542;11.974;2023-03-03T12:29:12;8.80;99.90
16958;DHT22;8595;52.542;11.974;2023-03-03T12:31:49;9.00;99.90
16958;DHT22;8595;52.542;11.974;2023-03-03T12:34:24;9.40;99.90
16958;DHT22;8595;52.542;11.974;2023-03-03T12:37:05;9.50;99.90
16958;DHT22;8595;52.542;11.974;2023-03-03T12:39:52;10.00;99.90
16958;DHT22;8595;52.542;11.974;2023-03-03T12:42:31;10.80;99.90
16958;DHT22;8595;52.542;11.974;2023-03-03T12:45:11;11.10;99.90
16958;DHT22;8595;52.542;11.974;2023-03-03T12:47:47;11.10;99.90
16958;DHT22;8595;52.542;11.974;2023-03-03T12:50:26;11.10;99.90
16958;DHT22;8595;52.542;11.974;2023-03-03T12:53:02;11.20;99.90
16958;DHT22;8595;52.542;11.974;2023-03-03T12:55:41;11.10;99.90
16958;DHT22;8595;52.542;11.974;2023-03-03T12:58:18;10.30;99.90
16958;DHT22;8595;52.542;11.974;2023-03-03T13:00:53;9.90;99.90
16958;DHT22;8595;52.542;11.974;2023-03-03T13:03:35;10.00;99.90
16958;DHT22;8595;52.542;11.974;2023-03-03T13:06:10;9.10;99.90
16958;DHT22;8595;52.542;11.974;2023-03-03T13:08:52;9.00;99.90
16958;DHT22;8595;52.542;11.974;2023-03-03T13:11:41;8.90;99.90
16958;DHT22;8595;52.542;11.974;2023-03-03T13:14:23;8.80;99.90
16958;DHT22;8595;52.542;11.974;2023-03-03T13:17:06;8.90;99.90
16958;DHT22;8595;52.542;11.974;2023-03-03T13:19:39;9.10;99.90
16958;DHT22;8595;52.542;11.974;2023-03-03T13:22:09;9.10;99.90
16958;DHT22;8595;52.542;11.974;2023-03-03T13:24:47;8.80;99.90
16958;DHT22;8595;52.542;11.974;2023-03-03T13:27:20;9.00;99.90
16958;DHT22;8595;52.542;11.974;2023-03-03T13:29:55;9.20;99.90
16958;DHT22;8595;52.542;11.974;2023-03-03T13:32:32;9.30;99.90
16958;DHT22;8595;52.542;11.974;2023-03-03T13:35:08;8.90;99.90
16958;DHT22;8595;52.542;11.974;2023-03-03T13:37:46;8.90;99.90
16958;DHT22;8595;52.542;11.974;2023-03-03T13:40:16;8.70;99.90
16958;DHT22;8595;52.542;11.974;2023-03-03T13:42:48;8.10;99.90
16958;DHT22;8595;52.542;11.974;2023-03-03T13:45:22;8.00;99.90
16958;DHT22;8595;52.542;11.974;2023-03-03T13:47:57;8.50;99.90
16958;DHT22;8595;52.542;11.974;2023-03-03T13:50:30;9.20;99.90
16958;DHT22;8595;52.542;11.974;2023-03-03T13:53:16;9.20;99.90
16958;DHT22;8595;52.542;11.974;2023-03-03T13:55:51;9.30;99.90
16958;DHT22;8595;52.542;11.974;2023-03-03T13:58:30;9.50;99.90
16958;DHT22;8595;52.542;11.974;2023-03-03T14:01:07;9.80;99.90
16958;DHT22;8595;52.542;11.974;2023-03-03T14:03:58;10.30;99.90
16958;DHT22;8595;52.542;11.974;2023-03-03T14:06:27;10.70;99.90
16958;DHT22;8595;52.542;11.974;2023-03-03T14:09:04;11.40;99.90
16958;DHT22;8595;52.542;11.974;2023-03-03T14:11:41;12.00;99.90
16958;DHT22;8595;52.542;11.974;2023-03-03T14:14:18;11.50;99.90
16958;DHT22;8595;52.542;11.974;2023-03-03T14:16:51;11.60;99.90
16958;DHT22;8595;52.542;11.974;2023-03-03T14:19:24;11.20;99.90
16958;DHT22;8595;52.542;11.974;2023-03-03T14:22:05;11.30;99.90
16958;DHT22;8595;52.542;11.974;2023-03-03T14:24:54;11.10;99.90
16958;DHT22;8595;52.542;11.974;2023-03-03T14:27:24;11.00;99.90
16958;DHT22;8595;52.542;11.974;2023-03-03T14:29:52;11.30;99.90
16958;DHT22;8595;52.542;11.974;2023-03-03T14:32:22;10.90;99.90
16958;DHT22;8595;52.542;11.974;2023-03-03T14:34:56;10.70;99.90
16958;DHT22;8595;52.542;11.974;2023-03-03T14:37:25;10.90;99.90
16958;DHT22;8595;52.542;11.974;2023-03-03T14:40:16;10.90;99.90
16958;DHT22;8595;52.542;11.974;2023-03-03T14:42:52;11.50;99.90
16958;DHT22;8595;52.542;11.974;2023-03-03T14:45:29;11.70;99.90
16958;DHT22;8595;52.542;11.974;2023-03-03T14:47:59;12.10;99.90
16958;DHT22;8595;52.542;11.974;2023-03-03T14:50:36;12.10;99.90
16958;DHT22;8595;52.542;11.974;2023-03-03T14:53:14;12.10;99.90
16958;DHT22;8595;52.542;11.974;2023-03-03T14:55:43;11.50;99.90
16958;DHT22;8595;52.542;11.974;2023-03-03T14:58:26;12.10;99.90
16958;DHT22;8595;52.542;11.974;2023-03-03T15:01:10;12.20;99.90
16958;DHT22;8595;52.542;11.974;2023-03-03T15:03:44;12.30;99.90
16958;DHT22;8595;52.542;11.974;2023-03-03T15:06:29;11.90;99.90
16958;DHT22;8595;52.542;11.974;2023-03-03T15:08:56;11.70;99.90
16958;DHT22;8595;52.542;11.974;2023-03-03T15:11:50;11.60;99.90
16958;DHT22;8595;52.542;11.974;2023-03-03T15:14:27;11.30;99.90
16958;DHT22;8595;52.542;11.974;2023-03-03T15:17:17;10.70;99.90
16958;DHT22;8595;52.542;11.974;2023-03-03T15:19:51;10.40;99.90
16958;DHT22;8595;52.542;11.974;2023-03-03T15:22:36;10.00;99.90
16958;DHT22;8595;52.542;11.974;2023-03-03T15:25:17;9.60;99.90
16958;DHT22;8595;52.542;11.974;2023-03-03T15:27:48;9.20;99.90
16958;DHT22;8595;52.542;11.974;2023-03-03T15:30:23;9.10;99.90
16958;DHT22;8595;52.542;11.974;2023-03-03T15:32:59;9.00;99.90
16958;DHT22;8595;52.542;11.974;2023-03-03T15:35:35;8.90;99.90
16958;DHT22;8595;52.542;11.974;2023-03-03T15:38:10;9.10;99.90
16958;DHT22;8595;52.542;11.974;2023-03-03T15:40:46;9.30;99.90
16958;DHT22;8595;52.542;11.974;2023-03-03T15:43:21;9.70;99.90
16958;DHT22;8595;52.542;11.974;2023-03-03T15:45:52;9.50;99.90
16958;DHT22;8595;52.542;11.974;2023-03-03T15:48:47;9.20;99.90
16958;DHT22;8595;52.542;11.974;2023-03-03T15:51:29;8.80;99.90
16958;DHT22;8595;52.542;11.974;2023-03-03T15:54:13;8.60;99.90
16958;DHT22;8595;52.542;11.974;2023-03-03T15:56:47;8.30;99.90
16958;DHT22;8595;52.542;11.974;2023-03-03T15:59:48;8.20;99.90
16958;DHT22;8595;52.542;11.974;2023-03-03T16:02:19;8.20;99.90
16958;DHT22;8595;52.542;11.974;2023-03-03T16:04:59;7.90;99.90
16958;DHT22;8595;52.542;11.974;2023-03-03T16:07:37;7.70;99.90
16958;DHT22;8595;52.542;11.974;2023-03-03T16:10:18;7.40;99.90
16958;DHT22;8595;52.542;11.974;2023-03-03T16:12:54;7.40;99.90
16958;DHT22;8595;52.542;11.974;2023-03-03T16:15:33;7.30;99.90
16958;DHT22;8595;52.542;11.974;2023-03-03T16:18:07;7.20;99.90
16958;DHT22;8595;52.542;11.974;2023-03-03T16:20:42;7.10;99.90
16958;DHT22;8595;52.542;11.974;2023-03-03T16:23:24;7.10;99.90
16958;DHT22;8595;52.542;11.974;2023-03-03T16:26:06;6.90;99.90
16958;DHT22;8595;52.542;11.974;2023-03-03T16:28:58;6.90;99.90
16958;DHT22;8595;52.542;11.974;2023-03-03T16:31:33;7.00;99.90